Orbital elements of FENGYUN 1C DEB
| Launched | 9 May 1999 |
| Flight ended | – |
| Launch site | Taiyuan Space Center, PRC |
| Owner | People's Republic of China |
| NORAD ID | 37427 |
| Date fetched |
Epoch osculation |
Inc. [°] |
Ecc. | RA asc node [hr] |
Arg Peri. [°] |
Mean anom [°] |
Mean motion [rev/day] |
Abs. mag |
| Date fetched |
Epoch osculation |
Inc. [°] |
Ecc. | RA asc node [hr] |
Arg Peri. [°] |
Mean anom [°] |
Mean motion [rev/day] |
Abs. mag |
| 2026 May 01 17:56 | 2026 Apr 29 04:09:29 | 98.6438 | 0.01746 | 18.7308 | 206.1414 | 153.0916 | 15.00570 | – |
| 2026 Apr 30 17:56 | 2026 Apr 29 04:09:29 | 98.6438 | 0.01746 | 18.7308 | 206.1414 | 153.0916 | 15.00570 | – |
| 2026 Apr 29 17:57 | 2026 Apr 23 16:55:17 | 98.6448 | 0.01745 | 18.3256 | 224.2755 | 153.0916 | 15.00570 | – |
| 2026 Apr 28 17:56 | 2026 Apr 23 16:55:17 | 98.6448 | 0.01745 | 18.3256 | 224.2755 | 153.0916 | 15.00570 | – |
| 2026 Apr 27 17:58 | 2026 Apr 23 16:55:17 | 98.6448 | 0.01745 | 18.3256 | 224.2755 | 153.0916 | 15.00570 | – |
| 2026 Apr 26 17:58 | 2026 Apr 23 16:55:17 | 98.6448 | 0.01745 | 18.3256 | 224.2755 | 153.0916 | 15.00570 | – |
| 2026 Apr 25 17:58 | 2026 Apr 23 16:55:17 | 98.6448 | 0.01745 | 18.3256 | 224.2755 | 153.0916 | 15.00570 | – |
| 2026 Apr 24 17:59 | 2026 Apr 23 16:55:17 | 98.6448 | 0.01745 | 18.3256 | 224.2755 | 153.0916 | 15.00570 | – |
| 2026 Apr 23 17:57 | 2026 Apr 19 04:05:10 | 98.6430 | 0.01746 | 17.9896 | 239.3474 | 153.0916 | 15.00570 | – |
| 2026 Apr 22 17:57 | 2026 Apr 19 04:05:10 | 98.6430 | 0.01746 | 17.9896 | 239.3474 | 153.0916 | 15.00570 | – |
| 2026 Apr 21 17:57 | 2026 Apr 19 04:05:10 | 98.6430 | 0.01746 | 17.9896 | 239.3474 | 153.0916 | 15.00570 | – |
| 2026 Apr 20 17:57 | 2026 Apr 19 04:05:10 | 98.6430 | 0.01746 | 17.9896 | 239.3474 | 153.0916 | 15.00570 | – |
| 2026 Apr 19 17:58 | 2026 Apr 19 04:05:10 | 98.6430 | 0.01746 | 17.9896 | 239.3474 | 153.0916 | 15.00570 | – |
| 2026 Apr 18 17:56 | 2026 Apr 13 04:02:08 | 98.6418 | 0.01748 | 17.5450 | 259.2754 | 153.0916 | 15.00570 | – |
| 2026 Apr 16 17:57 | 2026 Apr 13 04:02:08 | 98.6418 | 0.01748 | 17.5450 | 259.2754 | 153.0916 | 15.00570 | – |
| 2026 Apr 14 17:57 | 2026 Apr 13 04:02:08 | 98.6418 | 0.01748 | 17.5450 | 259.2754 | 153.0916 | 15.00570 | – |
| 2026 Apr 13 17:57 | 2026 Apr 13 04:02:08 | 98.6418 | 0.01748 | 17.5450 | 259.2754 | 153.0916 | 15.00570 | – |
| 2026 Apr 12 17:57 | 2026 Apr 07 03:58:53 | 98.6423 | 0.01753 | 17.1004 | 279.1845 | 153.0916 | 15.00570 | – |
| 2026 Apr 11 17:57 | 2026 Apr 07 03:58:53 | 98.6423 | 0.01753 | 17.1004 | 279.1845 | 153.0916 | 15.00570 | – |
| 2026 Apr 10 17:58 | 2026 Apr 07 03:58:53 | 98.6423 | 0.01753 | 17.1004 | 279.1845 | 153.0916 | 15.00570 | – |
| 2026 Apr 09 18:01 | 2026 Apr 07 03:58:53 | 98.6423 | 0.01753 | 17.1004 | 279.1845 | 153.0916 | 15.00570 | – |
| 2026 Apr 08 17:57 | 2026 Apr 07 03:58:53 | 98.6423 | 0.01753 | 17.1004 | 279.1845 | 153.0916 | 15.00570 | – |
| 2026 Apr 07 17:57 | 2026 Apr 02 03:55:54 | 98.6397 | 0.01758 | 16.7299 | 295.7857 | 153.0916 | 15.00570 | – |
| 2026 Apr 06 17:57 | 2026 Apr 02 03:55:54 | 98.6397 | 0.01758 | 16.7299 | 295.7857 | 153.0916 | 15.00570 | – |
| 2026 Apr 05 17:56 | 2026 Apr 02 03:55:54 | 98.6397 | 0.01758 | 16.7299 | 295.7857 | 153.0916 | 15.00570 | – |
| 2026 Apr 04 17:57 | 2026 Apr 02 03:55:54 | 98.6397 | 0.01758 | 16.7299 | 295.7857 | 153.0916 | 15.00570 | – |